Hlavní strana
METAR-TAF:

METAR-TAF

Letiště :

Parsons, Tennessee, Spojené státy americké

zeměpisná šířka: 35-39-23N, zeměpisná délka: 088-11-43W, výška: 149 m

Aktuální stav počasí

Zpráva byla vytvořena před 15 minutami, v 17:15 UTC
Severoseverovýchodní vítr 7 kt, proměnlivý mezi severoseverozápadním a východoseverovýchodním
Teplota 6°C
Vlhkost vzduchu 49%
Tlak 1027 hPa
Viditelnost: 16.1 km
Jasno

METAR: KPVE 151715Z AUTO 03007KT 340V070 10SM CLR 06/M04 A3033 RMK A01

Čas: 11:30 (17:30 UTC)


TAF: chybějící

Stav a předpovědi počasí z více než 4 000 letišť (zprávy METAR a TAF).

Červené a žluté tečky na mapě představují dostupné meteorologické stanice.

Když kurzor umístíte na tečku, zobrazí se název stanice.

Pak kliknutím zobrazíte stav a předpověď počasí.

Chcete-li změnit mapu, kliknutím na zelené tlačítko se znaménkem +mapu přiblížíte, kliknutím na zelené tlačítko se znaménkem – mapu oddálíte a kliknutím na zelené šipky přejdete na sousední mapy.


METAR-TAF: